sensor_id;sensor_type;location;lat;lon;timestamp;P1;durP1;ratioP1;P2;durP2;ratioP2
43670;SDS011;29267;50.906;7.248;2023-08-06T00:01:44;6.10;;;3.25;;
43670;SDS011;29267;50.906;7.248;2023-08-06T00:04:10;5.45;;;3.35;;
43670;SDS011;29267;50.906;7.248;2023-08-06T00:06:35;7.90;;;4.00;;
43670;SDS011;29267;50.906;7.248;2023-08-06T00:09:01;5.05;;;3.38;;
43670;SDS011;29267;50.906;7.248;2023-08-06T00:11:27;5.60;;;3.50;;
43670;SDS011;29267;50.906;7.248;2023-08-06T00:13:52;5.00;;;3.85;;
43670;SDS011;29267;50.906;7.248;2023-08-06T00:16:18;7.35;;;3.40;;
43670;SDS011;29267;50.906;7.248;2023-08-06T00:18:43;6.10;;;3.60;;
43670;SDS011;29267;50.906;7.248;2023-08-06T00:21:09;6.22;;;3.80;;
43670;SDS011;29267;50.906;7.248;2023-08-06T00:23:37;14.40;;;3.90;;
43670;SDS011;29267;50.906;7.248;2023-08-06T00:26:02;3.75;;;3.00;;
43670;SDS011;29267;50.906;7.248;2023-08-06T00:28:28;5.18;;;3.25;;
43670;SDS011;29267;50.906;7.248;2023-08-06T00:30:57;5.75;;;3.10;;
43670;SDS011;29267;50.906;7.248;2023-08-06T00:33:23;7.03;;;3.72;;
43670;SDS011;29267;50.906;7.248;2023-08-06T00:35:49;6.57;;;3.50;;
43670;SDS011;29267;50.906;7.248;2023-08-06T00:38:14;6.18;;;3.83;;
43670;SDS011;29267;50.906;7.248;2023-08-06T00:40:40;4.32;;;3.25;;
43670;SDS011;29267;50.906;7.248;2023-08-06T00:43:06;6.90;;;4.10;;
43670;SDS011;29267;50.906;7.248;2023-08-06T00:45:33;7.70;;;3.10;;
43670;SDS011;29267;50.906;7.248;2023-08-06T00:48:00;8.98;;;4.05;;
43670;SDS011;29267;50.906;7.248;2023-08-06T00:50:26;5.25;;;3.55;;
43670;SDS011;29267;50.906;7.248;2023-08-06T00:52:52;6.82;;;3.97;;
43670;SDS011;29267;50.906;7.248;2023-08-06T00:55:19;11.15;;;3.60;;
43670;SDS011;29267;50.906;7.248;2023-08-06T00:57:44;5.30;;;3.75;;
43670;SDS011;29267;50.906;7.248;2023-08-06T01:00:10;10.80;;;3.33;;
43670;SDS011;29267;50.906;7.248;2023-08-06T01:02:37;6.07;;;3.70;;
43670;SDS011;29267;50.906;7.248;2023-08-06T01:05:02;9.57;;;4.45;;
43670;SDS011;29267;50.906;7.248;2023-08-06T01:15:56;6.72;;;3.55;;
43670;SDS011;29267;50.906;7.248;2023-08-06T01:18:24;10.43;;;4.07;;
43670;SDS011;29267;50.906;7.248;2023-08-06T01:20:51;10.52;;;4.28;;
43670;SDS011;29267;50.906;7.248;2023-08-06T01:23:16;14.82;;;4.97;;
43670;SDS011;29267;50.906;7.248;2023-08-06T01:28:17;7.30;;;3.60;;
43670;SDS011;29267;50.906;7.248;2023-08-06T01:31:02;4.85;;;3.67;;
43670;SDS011;29267;50.906;7.248;2023-08-06T01:33:30;5.13;;;3.38;;
43670;SDS011;29267;50.906;7.248;2023-08-06T01:35:58;12.13;;;3.95;;
43670;SDS011;29267;50.906;7.248;2023-08-06T01:38:24;5.88;;;3.83;;
43670;SDS011;29267;50.906;7.248;2023-08-06T01:40:50;8.63;;;3.63;;
43670;SDS011;29267;50.906;7.248;2023-08-06T01:43:16;6.65;;;3.42;;
43670;SDS011;29267;50.906;7.248;2023-08-06T01:45:41;5.53;;;3.50;;
43670;SDS011;29267;50.906;7.248;2023-08-06T01:48:07;7.22;;;3.55;;
43670;SDS011;29267;50.906;7.248;2023-08-06T01:50:32;7.22;;;3.75;;
43670;SDS011;29267;50.906;7.248;2023-08-06T01:52:58;9.00;;;3.50;;
43670;SDS011;29267;50.906;7.248;2023-08-06T01:55:23;9.85;;;4.07;;
43670;SDS011;29267;50.906;7.248;2023-08-06T01:57:49;10.75;;;3.42;;
43670;SDS011;29267;50.906;7.248;2023-08-06T02:00:14;5.35;;;3.60;;
43670;SDS011;29267;50.906;7.248;2023-08-06T02:02:40;5.82;;;3.38;;
43670;SDS011;29267;50.906;7.248;2023-08-06T02:05:06;7.03;;;2.92;;
43670;SDS011;29267;50.906;7.248;2023-08-06T02:07:32;4.65;;;3.60;;
43670;SDS011;29267;50.906;7.248;2023-08-06T02:09:57;7.28;;;3.42;;
43670;SDS011;29267;50.906;7.248;2023-08-06T02:12:23;6.07;;;4.10;;
43670;SDS011;29267;50.906;7.248;2023-08-06T02:14:48;8.82;;;3.70;;
43670;SDS011;29267;50.906;7.248;2023-08-06T02:17:14;7.63;;;3.83;;
43670;SDS011;29267;50.906;7.248;2023-08-06T02:19:39;5.10;;;3.13;;
43670;SDS011;29267;50.906;7.248;2023-08-06T02:22:05;6.43;;;3.47;;
43670;SDS011;29267;50.906;7.248;2023-08-06T02:24:30;5.63;;;3.58;;
43670;SDS011;29267;50.906;7.248;2023-08-06T02:26:57;6.57;;;3.80;;
43670;SDS011;29267;50.906;7.248;2023-08-06T02:29:22;7.43;;;3.85;;
43670;SDS011;29267;50.906;7.248;2023-08-06T02:31:48;4.88;;;3.45;;
43670;SDS011;29267;50.906;7.248;2023-08-06T02:34:13;7.43;;;4.40;;
43670;SDS011;29267;50.906;7.248;2023-08-06T02:36:39;8.48;;;3.67;;
43670;SDS011;29267;50.906;7.248;2023-08-06T02:39:04;10.00;;;4.40;;
43670;SDS011;29267;50.906;7.248;2023-08-06T02:41:30;9.57;;;4.20;;
43670;SDS011;29267;50.906;7.248;2023-08-06T02:43:55;5.13;;;3.70;;
43670;SDS011;29267;50.906;7.248;2023-08-06T02:46:21;8.50;;;3.85;;
43670;SDS011;29267;50.906;7.248;2023-08-06T02:48:47;9.18;;;3.83;;
43670;SDS011;29267;50.906;7.248;2023-08-06T02:51:12;6.07;;;4.03;;
43670;SDS011;29267;50.906;7.248;2023-08-06T02:53:38;6.38;;;3.58;;
43670;SDS011;29267;50.906;7.248;2023-08-06T02:56:04;9.15;;;3.80;;
43670;SDS011;29267;50.906;7.248;2023-08-06T02:58:29;4.75;;;3.33;;
43670;SDS011;29267;50.906;7.248;2023-08-06T03:00:58;5.57;;;3.60;;
43670;SDS011;29267;50.906;7.248;2023-08-06T03:03:33;6.70;;;2.80;;
43670;SDS011;29267;50.906;7.248;2023-08-06T03:05:59;9.15;;;3.35;;
43670;SDS011;29267;50.906;7.248;2023-08-06T03:08:25;8.10;;;3.63;;
43670;SDS011;29267;50.906;7.248;2023-08-06T03:10:51;9.15;;;3.75;;
43670;SDS011;29267;50.906;7.248;2023-08-06T03:13:17;4.43;;;3.03;;
43670;SDS011;29267;50.906;7.248;2023-08-06T03:15:43;4.35;;;3.22;;
43670;SDS011;29267;50.906;7.248;2023-08-06T03:18:16;4.78;;;3.10;;
43670;SDS011;29267;50.906;7.248;2023-08-06T03:20:42;4.65;;;3.22;;
43670;SDS011;29267;50.906;7.248;2023-08-06T03:23:08;6.40;;;3.40;;
43670;SDS011;29267;50.906;7.248;2023-08-06T03:25:35;5.63;;;3.33;;
43670;SDS011;29267;50.906;7.248;2023-08-06T03:28:01;11.63;;;3.88;;
43670;SDS011;29267;50.906;7.248;2023-08-06T03:30:27;8.30;;;3.13;;
43670;SDS011;29267;50.906;7.248;2023-08-06T03:32:52;6.53;;;3.05;;
43670;SDS011;29267;50.906;7.248;2023-08-06T03:35:18;4.97;;;3.38;;
43670;SDS011;29267;50.906;7.248;2023-08-06T03:37:44;6.90;;;3.67;;
43670;SDS011;29267;50.906;7.248;2023-08-06T03:40:09;5.15;;;3.22;;
43670;SDS011;29267;50.906;7.248;2023-08-06T03:42:35;4.80;;;2.95;;
43670;SDS011;29267;50.906;7.248;2023-08-06T03:45:01;6.50;;;3.17;;
43670;SDS011;29267;50.906;7.248;2023-08-06T03:47:26;4.68;;;3.22;;
43670;SDS011;29267;50.906;7.248;2023-08-06T03:49:52;5.32;;;3.10;;
43670;SDS011;29267;50.906;7.248;2023-08-06T03:52:17;6.28;;;3.50;;
43670;SDS011;29267;50.906;7.248;2023-08-06T03:54:43;4.85;;;3.78;;
43670;SDS011;29267;50.906;7.248;2023-08-06T03:57:09;6.70;;;3.28;;
43670;SDS011;29267;50.906;7.248;2023-08-06T03:59:35;4.00;;;2.90;;
43670;SDS011;29267;50.906;7.248;2023-08-06T04:02:01;9.65;;;3.05;;
43670;SDS011;29267;50.906;7.248;2023-08-06T04:04:27;4.68;;;2.97;;
43670;SDS011;29267;50.906;7.248;2023-08-06T04:06:52;7.10;;;3.30;;
43670;SDS011;29267;50.906;7.248;2023-08-06T04:09:18;5.55;;;3.05;;
43670;SDS011;29267;50.906;7.248;2023-08-06T04:11:44;5.55;;;2.47;;
43670;SDS011;29267;50.906;7.248;2023-08-06T04:14:09;8.00;;;2.92;;
43670;SDS011;29267;50.906;7.248;2023-08-06T04:16:35;6.15;;;2.63;;
43670;SDS011;29267;50.906;7.248;2023-08-06T04:19:01;4.57;;;2.60;;
43670;SDS011;29267;50.906;7.248;2023-08-06T04:21:26;3.58;;;2.63;;
43670;SDS011;29267;50.906;7.248;2023-08-06T04:23:52;4.65;;;2.70;;
43670;SDS011;29267;50.906;7.248;2023-08-06T04:26:18;8.95;;;2.80;;
43670;SDS011;29267;50.906;7.248;2023-08-06T04:28:43;4.47;;;2.53;;
43670;SDS011;29267;50.906;7.248;2023-08-06T04:31:09;4.47;;;3.03;;
43670;SDS011;29267;50.906;7.248;2023-08-06T04:33:34;6.43;;;2.40;;
43670;SDS011;29267;50.906;7.248;2023-08-06T04:36:00;3.97;;;2.67;;
43670;SDS011;29267;50.906;7.248;2023-08-06T04:38:26;6.05;;;2.38;;
43670;SDS011;29267;50.906;7.248;2023-08-06T04:40:52;6.57;;;2.65;;
43670;SDS011;29267;50.906;7.248;2023-08-06T04:43:18;7.88;;;2.95;;
43670;SDS011;29267;50.906;7.248;2023-08-06T04:45:49;3.75;;;2.60;;
43670;SDS011;29267;50.906;7.248;2023-08-06T04:48:17;6.57;;;2.22;;
43670;SDS011;29267;50.906;7.248;2023-08-06T04:50:43;4.47;;;2.55;;
43670;SDS011;29267;50.906;7.248;2023-08-06T04:53:12;5.63;;;2.05;;
43670;SDS011;29267;50.906;7.248;2023-08-06T04:55:38;4.53;;;2.80;;
43670;SDS011;29267;50.906;7.248;2023-08-06T04:58:04;7.30;;;2.50;;
43670;SDS011;29267;50.906;7.248;2023-08-06T05:00:30;5.50;;;2.55;;
43670;SDS011;29267;50.906;7.248;2023-08-06T05:02:56;5.32;;;2.40;;
43670;SDS011;29267;50.906;7.248;2023-08-06T05:05:21;3.90;;;2.45;;
43670;SDS011;29267;50.906;7.248;2023-08-06T05:07:47;5.20;;;2.78;;
43670;SDS011;29267;50.906;7.248;2023-08-06T05:10:14;4.70;;;2.47;;
43670;SDS011;29267;50.906;7.248;2023-08-06T05:12:39;3.03;;;2.15;;
43670;SDS011;29267;50.906;7.248;2023-08-06T05:15:05;3.92;;;2.28;;
43670;SDS011;29267;50.906;7.248;2023-08-06T05:17:31;5.88;;;2.55;;
43670;SDS011;29267;50.906;7.248;2023-08-06T05:19:56;5.43;;;2.60;;
43670;SDS011;29267;50.906;7.248;2023-08-06T05:22:22;8.15;;;2.22;;
43670;SDS011;29267;50.906;7.248;2023-08-06T05:24:47;4.43;;;2.67;;
43670;SDS011;29267;50.906;7.248;2023-08-06T05:27:13;4.68;;;2.05;;
43670;SDS011;29267;50.906;7.248;2023-08-06T05:29:38;5.32;;;2.30;;
43670;SDS011;29267;50.906;7.248;2023-08-06T05:32:04;7.75;;;3.47;;
43670;SDS011;29267;50.906;7.248;2023-08-06T05:34:30;5.97;;;2.47;;
43670;SDS011;29267;50.906;7.248;2023-08-06T05:36:55;4.05;;;2.35;;
43670;SDS011;29267;50.906;7.248;2023-08-06T05:39:21;8.02;;;2.35;;
43670;SDS011;29267;50.906;7.248;2023-08-06T05:41:46;5.40;;;2.90;;
43670;SDS011;29267;50.906;7.248;2023-08-06T05:44:12;3.85;;;1.88;;
43670;SDS011;29267;50.906;7.248;2023-08-06T05:46:38;5.32;;;2.30;;
43670;SDS011;29267;50.906;7.248;2023-08-06T05:49:03;4.70;;;3.15;;
43670;SDS011;29267;50.906;7.248;2023-08-06T05:51:30;6.53;;;2.40;;
43670;SDS011;29267;50.906;7.248;2023-08-06T05:53:55;6.20;;;2.40;;
43670;SDS011;29267;50.906;7.248;2023-08-06T05:56:21;8.60;;;2.38;;
43670;SDS011;29267;50.906;7.248;2023-08-06T05:58:46;4.13;;;2.45;;
43670;SDS011;29267;50.906;7.248;2023-08-06T06:01:12;8.68;;;2.20;;
43670;SDS011;29267;50.906;7.248;2023-08-06T06:03:38;3.47;;;2.47;;
43670;SDS011;29267;50.906;7.248;2023-08-06T06:06:04;3.50;;;2.20;;
43670;SDS011;29267;50.906;7.248;2023-08-06T06:08:29;3.05;;;2.13;;
43670;SDS011;29267;50.906;7.248;2023-08-06T06:10:55;2.75;;;2.13;;
43670;SDS011;29267;50.906;7.248;2023-08-06T06:13:21;4.75;;;1.90;;
43670;SDS011;29267;50.906;7.248;2023-08-06T06:15:46;7.75;;;1.90;;
43670;SDS011;29267;50.906;7.248;2023-08-06T06:18:12;5.88;;;1.95;;
43670;SDS011;29267;50.906;7.248;2023-08-06T06:20:38;4.72;;;2.15;;
43670;SDS011;29267;50.906;7.248;2023-08-06T06:23:04;4.43;;;2.03;;
43670;SDS011;29267;50.906;7.248;2023-08-06T06:25:29;2.83;;;1.90;;
43670;SDS011;29267;50.906;7.248;2023-08-06T06:27:55;7.22;;;2.28;;
43670;SDS011;29267;50.906;7.248;2023-08-06T06:30:20;6.25;;;1.88;;
43670;SDS011;29267;50.906;7.248;2023-08-06T06:32:46;3.47;;;1.85;;
43670;SDS011;29267;50.906;7.248;2023-08-06T06:35:12;5.07;;;1.52;;
43670;SDS011;29267;50.906;7.248;2023-08-06T06:37:38;2.05;;;1.55;;
43670;SDS011;29267;50.906;7.248;2023-08-06T06:40:03;5.97;;;1.20;;
43670;SDS011;29267;50.906;7.248;2023-08-06T06:42:29;2.08;;;1.15;;
43670;SDS011;29267;50.906;7.248;2023-08-06T06:44:55;1.77;;;1.30;;
43670;SDS011;29267;50.906;7.248;2023-08-06T06:47:21;1.27;;;1.10;;
43670;SDS011;29267;50.906;7.248;2023-08-06T06:49:46;2.45;;;1.40;;
43670;SDS011;29267;50.906;7.248;2023-08-06T06:52:12;5.57;;;3.30;;
43670;SDS011;29267;50.906;7.248;2023-08-06T06:54:37;7.47;;;2.33;;
43670;SDS011;29267;50.906;7.248;2023-08-06T06:57:03;1.45;;;1.30;;
43670;SDS011;29267;50.906;7.248;2023-08-06T06:59:29;2.78;;;1.27;;
43670;SDS011;29267;50.906;7.248;2023-08-06T07:01:55;2.33;;;1.73;;
43670;SDS011;29267;50.906;7.248;2023-08-06T07:04:20;4.03;;;1.30;;
43670;SDS011;29267;50.906;7.248;2023-08-06T07:06:47;3.53;;;1.27;;
43670;SDS011;29267;50.906;7.248;2023-08-06T07:09:12;1.73;;;0.98;;
43670;SDS011;29267;50.906;7.248;2023-08-06T07:11:38;1.98;;;0.90;;
43670;SDS011;29267;50.906;7.248;2023-08-06T07:14:03;1.15;;;0.85;;
43670;SDS011;29267;50.906;7.248;2023-08-06T07:16:29;1.65;;;0.85;;
43670;SDS011;29267;50.906;7.248;2023-08-06T07:18:54;1.23;;;0.88;;
43670;SDS011;29267;50.906;7.248;2023-08-06T07:21:20;1.77;;;1.20;;
43670;SDS011;29267;50.906;7.248;2023-08-06T07:23:46;2.08;;;0.90;;
43670;SDS011;29267;50.906;7.248;2023-08-06T07:26:14;1.42;;;0.70;;
43670;SDS011;29267;50.906;7.248;2023-08-06T07:28:41;1.88;;;0.98;;
43670;SDS011;29267;50.906;7.248;2023-08-06T07:31:06;1.38;;;1.02;;
43670;SDS011;29267;50.906;7.248;2023-08-06T07:33:32;4.47;;;1.20;;
43670;SDS011;29267;50.906;7.248;2023-08-06T07:35:57;1.70;;;1.20;;
43670;SDS011;29267;50.906;7.248;2023-08-06T07:38:23;1.15;;;0.93;;
43670;SDS011;29267;50.906;7.248;2023-08-06T07:40:49;0.98;;;0.95;;
43670;SDS011;29267;50.906;7.248;2023-08-06T07:43:14;2.25;;;1.13;;
43670;SDS011;29267;50.906;7.248;2023-08-06T07:45:40;2.15;;;1.10;;
43670;SDS011;29267;50.906;7.248;2023-08-06T07:48:05;2.22;;;1.13;;
43670;SDS011;29267;50.906;7.248;2023-08-06T07:50:31;1.70;;;1.25;;
43670;SDS011;29267;50.906;7.248;2023-08-06T07:52:57;1.30;;;1.20;;
43670;SDS011;29267;50.906;7.248;2023-08-06T07:55:22;2.30;;;1.23;;
43670;SDS011;29267;50.906;7.248;2023-08-06T07:57:48;1.75;;;1.15;;
43670;SDS011;29267;50.906;7.248;2023-08-06T08:00:13;1.80;;;1.10;;
43670;SDS011;29267;50.906;7.248;2023-08-06T08:02:39;1.77;;;1.23;;
43670;SDS011;29267;50.906;7.248;2023-08-06T08:05:05;3.78;;;1.67;;
43670;SDS011;29267;50.906;7.248;2023-08-06T08:07:32;5.63;;;1.20;;
43670;SDS011;29267;50.906;7.248;2023-08-06T08:09:57;1.50;;;1.17;;
43670;SDS011;29267;50.906;7.248;2023-08-06T08:12:23;2.90;;;1.02;;
43670;SDS011;29267;50.906;7.248;2023-08-06T08:14:49;1.23;;;1.05;;
43670;SDS011;29267;50.906;7.248;2023-08-06T08:17:14;3.25;;;1.80;;
43670;SDS011;29267;50.906;7.248;2023-08-06T08:19:40;3.58;;;1.38;;
43670;SDS011;29267;50.906;7.248;2023-08-06T08:22:06;2.40;;;1.30;;
43670;SDS011;29267;50.906;7.248;2023-08-06T08:24:31;1.88;;;1.20;;
43670;SDS011;29267;50.906;7.248;2023-08-06T08:26:57;2.55;;;1.25;;
43670;SDS011;29267;50.906;7.248;2023-08-06T08:29:23;2.33;;;1.20;;
43670;SDS011;29267;50.906;7.248;2023-08-06T08:31:48;2.33;;;1.33;;
43670;SDS011;29267;50.906;7.248;2023-08-06T08:34:18;1.80;;;1.65;;
43670;SDS011;29267;50.906;7.248;2023-08-06T08:36:44;3.17;;;1.23;;
43670;SDS011;29267;50.906;7.248;2023-08-06T08:39:12;1.55;;;1.20;;
43670;SDS011;29267;50.906;7.248;2023-08-06T08:41:38;2.17;;;1.23;;
43670;SDS011;29267;50.906;7.248;2023-08-06T08:44:05;2.35;;;1.30;;
43670;SDS011;29267;50.906;7.248;2023-08-06T08:46:37;3.15;;;1.30;;
43670;SDS011;29267;50.906;7.248;2023-08-06T08:49:05;1.58;;;1.10;;
43670;SDS011;29267;50.906;7.248;2023-08-06T08:51:31;4.32;;;1.23;;
43670;SDS011;29267;50.906;7.248;2023-08-06T08:53:59;1.83;;;1.13;;
43670;SDS011;29267;50.906;7.248;2023-08-06T08:56:26;1.80;;;1.15;;
43670;SDS011;29267;50.906;7.248;2023-08-06T08:58:52;2.45;;;1.23;;
43670;SDS011;29267;50.906;7.248;2023-08-06T09:01:20;4.65;;;1.50;;
43670;SDS011;29267;50.906;7.248;2023-08-06T09:03:46;2.63;;;1.30;;
43670;SDS011;29267;50.906;7.248;2023-08-06T09:06:12;2.00;;;1.58;;
43670;SDS011;29267;50.906;7.248;2023-08-06T09:08:41;2.28;;;2.08;;
43670;SDS011;29267;50.906;7.248;2023-08-06T09:11:12;2.20;;;2.00;;
43670;SDS011;29267;50.906;7.248;2023-08-06T09:13:38;5.63;;;1.88;;
43670;SDS011;29267;50.906;7.248;2023-08-06T09:16:04;2.47;;;1.95;;
43670;SDS011;29267;50.906;7.248;2023-08-06T09:18:29;3.70;;;2.00;;
43670;SDS011;29267;50.906;7.248;2023-08-06T09:20:56;2.33;;;1.80;;
43670;SDS011;29267;50.906;7.248;2023-08-06T09:23:29;2.90;;;2.17;;
43670;SDS011;29267;50.906;7.248;2023-08-06T09:25:56;3.92;;;2.65;;
43670;SDS011;29267;50.906;7.248;2023-08-06T09:28:31;3.20;;;1.95;;
43670;SDS011;29267;50.906;7.248;2023-08-06T09:31:03;3.80;;;1.50;;
43670;SDS011;29267;50.906;7.248;2023-08-06T09:33:29;1.40;;;1.10;;
43670;SDS011;29267;50.906;7.248;2023-08-06T09:35:54;4.65;;;1.52;;
43670;SDS011;29267;50.906;7.248;2023-08-06T09:38:20;2.10;;;1.08;;
43670;SDS011;29267;50.906;7.248;2023-08-06T09:40:46;1.45;;;1.05;;
43670;SDS011;29267;50.906;7.248;2023-08-06T09:43:12;3.08;;;1.00;;
43670;SDS011;29267;50.906;7.248;2023-08-06T09:45:38;1.25;;;0.80;;
43670;SDS011;29267;50.906;7.248;2023-08-06T09:48:05;1.35;;;1.00;;
43670;SDS011;29267;50.906;7.248;2023-08-06T09:50:33;1.55;;;0.93;;
43670;SDS011;29267;50.906;7.248;2023-08-06T09:53:02;1.10;;;0.73;;
43670;SDS011;29267;50.906;7.248;2023-08-06T09:55:32;2.13;;;0.80;;
43670;SDS011;29267;50.906;7.248;2023-08-06T09:57:58;1.23;;;0.65;;
43670;SDS011;29267;50.906;7.248;2023-08-06T10:00:24;1.00;;;0.80;;
43670;SDS011;29267;50.906;7.248;2023-08-06T10:02:51;5.53;;;0.93;;
43670;SDS011;29267;50.906;7.248;2023-08-06T10:05:20;3.83;;;0.88;;
43670;SDS011;29267;50.906;7.248;2023-08-06T10:07:47;0.77;;;0.60;;
43670;SDS011;29267;50.906;7.248;2023-08-06T10:10:15;1.40;;;0.82;;
43670;SDS011;29267;50.906;7.248;2023-08-06T10:12:51;0.73;;;0.70;;
43670;SDS011;29267;50.906;7.248;2023-08-06T10:15:24;6.15;;;1.10;;
43670;SDS011;29267;50.906;7.248;2023-08-06T10:17:52;1.63;;;0.85;;
43670;SDS011;29267;50.906;7.248;2023-08-06T10:20:21;1.48;;;0.90;;
43670;SDS011;29267;50.906;7.248;2023-08-06T10:22:59;2.83;;;1.10;;
43670;SDS011;29267;50.906;7.248;2023-08-06T10:25:30;1.85;;;0.93;;
43670;SDS011;29267;50.906;7.248;2023-08-06T10:27:57;1.60;;;1.10;;
43670;SDS011;29267;50.906;7.248;2023-08-06T10:32:50;2.08;;;1.30;;
43670;SDS011;29267;50.906;7.248;2023-08-06T10:40:31;5.47;;;2.60;;
43670;SDS011;29267;50.906;7.248;2023-08-06T10:43:01;3.25;;;2.63;;
43670;SDS011;29267;50.906;7.248;2023-08-06T10:45:27;4.85;;;1.80;;
43670;SDS011;29267;50.906;7.248;2023-08-06T10:47:54;1.73;;;1.42;;
43670;SDS011;29267;50.906;7.248;2023-08-06T10:50:24;11.07;;;0.90;;
43670;SDS011;29267;50.906;7.248;2023-08-06T10:52:50;2.53;;;1.00;;
43670;SDS011;29267;50.906;7.248;2023-08-06T10:55:26;1.80;;;0.82;;
43670;SDS011;29267;50.906;7.248;2023-08-06T10:57:53;0.95;;;0.95;;
43670;SDS011;29267;50.906;7.248;2023-08-06T11:00:20;2.05;;;0.65;;
43670;SDS011;29267;50.906;7.248;2023-08-06T11:02:49;0.57;;;0.57;;
43670;SDS011;29267;50.906;7.248;2023-08-06T11:05:16;0.43;;;0.43;;
43670;SDS011;29267;50.906;7.248;2023-08-06T11:07:42;0.65;;;0.63;;
43670;SDS011;29267;50.906;7.248;2023-08-06T11:10:09;0.75;;;0.55;;
43670;SDS011;29267;50.906;7.248;2023-08-06T11:12:36;0.50;;;0.50;;
43670;SDS011;29267;50.906;7.248;2023-08-06T11:15:02;0.55;;;0.55;;
43670;SDS011;29267;50.906;7.248;2023-08-06T11:17:29;1.88;;;0.90;;
43670;SDS011;29267;50.906;7.248;2023-08-06T11:19:56;1.92;;;0.98;;
43670;SDS011;29267;50.906;7.248;2023-08-06T11:22:24;1.17;;;0.88;;
43670;SDS011;29267;50.906;7.248;2023-08-06T11:24:50;3.08;;;1.05;;
43670;SDS011;29267;50.906;7.248;2023-08-06T11:27:16;2.83;;;1.10;;
43670;SDS011;29267;50.906;7.248;2023-08-06T11:29:42;2.03;;;0.82;;
43670;SDS011;29267;50.906;7.248;2023-08-06T11:32:09;1.65;;;1.42;;
43670;SDS011;29267;50.906;7.248;2023-08-06T11:34:35;1.90;;;1.40;;
43670;SDS011;29267;50.906;7.248;2023-08-06T11:37:04;2.13;;;1.42;;
43670;SDS011;29267;50.906;7.248;2023-08-06T11:39:37;2.63;;;1.60;;
43670;SDS011;29267;50.906;7.248;2023-08-06T11:42:04;5.55;;;2.08;;
43670;SDS011;29267;50.906;7.248;2023-08-06T11:44:31;2.88;;;1.98;;
43670;SDS011;29267;50.906;7.248;2023-08-06T11:46:58;3.78;;;1.98;;
43670;SDS011;29267;50.906;7.248;2023-08-06T11:49:45;7.05;;;2.13;;
43670;SDS011;29267;50.906;7.248;2023-08-06T11:52:21;3.30;;;1.77;;
43670;SDS011;29267;50.906;7.248;2023-08-06T11:55:01;4.60;;;2.00;;
43670;SDS011;29267;50.906;7.248;2023-08-06T11:57:37;5.60;;;1.83;;
43670;SDS011;29267;50.906;7.248;2023-08-06T12:00:08;4.50;;;2.05;;
43670;SDS011;29267;50.906;7.248;2023-08-06T12:02:35;10.48;;;2.20;;
43670;SDS011;29267;50.906;7.248;2023-08-06T12:05:04;3.95;;;1.85;;
43670;SDS011;29267;50.906;7.248;2023-08-06T12:07:57;4.72;;;1.70;;
43670;SDS011;29267;50.906;7.248;2023-08-06T12:10:24;2.80;;;2.00;;
43670;SDS011;29267;50.906;7.248;2023-08-06T12:12:51;3.25;;;1.60;;
43670;SDS011;29267;50.906;7.248;2023-08-06T12:15:17;3.33;;;2.00;;
43670;SDS011;29267;50.906;7.248;2023-08-06T12:17:43;6.13;;;1.40;;
43670;SDS011;29267;50.906;7.248;2023-08-06T12:20:09;4.43;;;2.00;;
43670;SDS011;29267;50.906;7.248;2023-08-06T12:22:35;4.10;;;1.88;;
43670;SDS011;29267;50.906;7.248;2023-08-06T12:25:03;3.90;;;1.30;;
43670;SDS011;29267;50.906;7.248;2023-08-06T12:27:36;4.80;;;1.55;;
43670;SDS011;29267;50.906;7.248;2023-08-06T12:30:03;4.53;;;1.20;;
43670;SDS011;29267;50.906;7.248;2023-08-06T12:32:30;5.93;;;1.65;;
43670;SDS011;29267;50.906;7.248;2023-08-06T12:34:56;6.57;;;2.47;;
43670;SDS011;29267;50.906;7.248;2023-08-06T12:37:21;2.53;;;1.80;;
43670;SDS011;29267;50.906;7.248;2023-08-06T12:39:48;2.28;;;1.20;;
43670;SDS011;29267;50.906;7.248;2023-08-06T12:42:13;4.63;;;1.67;;
43670;SDS011;29267;50.906;7.248;2023-08-06T12:44:39;6.03;;;1.67;;
43670;SDS011;29267;50.906;7.248;2023-08-06T12:47:06;2.63;;;1.45;;
43670;SDS011;29267;50.906;7.248;2023-08-06T12:49:32;4.57;;;1.60;;
43670;SDS011;29267;50.906;7.248;2023-08-06T12:51:58;3.20;;;1.48;;
43670;SDS011;29267;50.906;7.248;2023-08-06T12:54:27;3.25;;;0.93;;
43670;SDS011;29267;50.906;7.248;2023-08-06T12:56:53;2.00;;;1.30;;
43670;SDS011;29267;50.906;7.248;2023-08-06T12:59:18;3.22;;;1.92;;
43670;SDS011;29267;50.906;7.248;2023-08-06T13:01:45;2.53;;;1.00;;
43670;SDS011;29267;50.906;7.248;2023-08-06T13:04:11;3.15;;;1.50;;
43670;SDS011;29267;50.906;7.248;2023-08-06T13:06:37;3.50;;;1.40;;
43670;SDS011;29267;50.906;7.248;2023-08-06T13:09:04;2.13;;;1.50;;
43670;SDS011;29267;50.906;7.248;2023-08-06T13:11:33;2.88;;;1.10;;
43670;SDS011;29267;50.906;7.248;2023-08-06T13:14:03;5.80;;;1.50;;
43670;SDS011;29267;50.906;7.248;2023-08-06T13:16:33;1.58;;;1.10;;
43670;SDS011;29267;50.906;7.248;2023-08-06T13:18:59;3.17;;;1.42;;
43670;SDS011;29267;50.906;7.248;2023-08-06T13:21:31;5.07;;;1.35;;
43670;SDS011;29267;50.906;7.248;2023-08-06T13:24:03;2.33;;;1.55;;
43670;SDS011;29267;50.906;7.248;2023-08-06T13:26:29;3.05;;;1.40;;
43670;SDS011;29267;50.906;7.248;2023-08-06T13:28:58;2.33;;;1.42;;
43670;SDS011;29267;50.906;7.248;2023-08-06T13:31:25;3.33;;;1.45;;
43670;SDS011;29267;50.906;7.248;2023-08-06T13:33:52;6.38;;;1.60;;
43670;SDS011;29267;50.906;7.248;2023-08-06T13:36:20;2.60;;;1.50;;
43670;SDS011;29267;50.906;7.248;2023-08-06T13:38:46;3.58;;;1.67;;
43670;SDS011;29267;50.906;7.248;2023-08-06T13:41:12;6.95;;;1.58;;
43670;SDS011;29267;50.906;7.248;2023-08-06T13:43:38;3.00;;;1.00;;
43670;SDS011;29267;50.906;7.248;2023-08-06T13:46:04;2.63;;;1.27;;
43670;SDS011;29267;50.906;7.248;2023-08-06T13:48:29;4.03;;;1.30;;
43670;SDS011;29267;50.906;7.248;2023-08-06T13:50:55;4.70;;;1.48;;
43670;SDS011;29267;50.906;7.248;2023-08-06T13:53:21;3.47;;;2.10;;
43670;SDS011;29267;50.906;7.248;2023-08-06T13:55:47;3.22;;;1.42;;
43670;SDS011;29267;50.906;7.248;2023-08-06T13:58:13;4.35;;;1.58;;
43670;SDS011;29267;50.906;7.248;2023-08-06T14:00:38;3.95;;;1.75;;
43670;SDS011;29267;50.906;7.248;2023-08-06T14:03:04;3.45;;;1.95;;
43670;SDS011;29267;50.906;7.248;2023-08-06T14:05:34;5.40;;;1.85;;
43670;SDS011;29267;50.906;7.248;2023-08-06T14:07:59;4.82;;;1.95;;
43670;SDS011;29267;50.906;7.248;2023-08-06T14:10:25;2.28;;;1.55;;
43670;SDS011;29267;50.906;7.248;2023-08-06T14:12:50;5.18;;;2.00;;
43670;SDS011;29267;50.906;7.248;2023-08-06T14:15:16;6.95;;;2.00;;
43670;SDS011;29267;50.906;7.248;2023-08-06T14:17:42;3.13;;;1.50;;
43670;SDS011;29267;50.906;7.248;2023-08-06T14:20:07;2.55;;;1.50;;
43670;SDS011;29267;50.906;7.248;2023-08-06T14:22:36;6.60;;;2.22;;
43670;SDS011;29267;50.906;7.248;2023-08-06T14:25:02;5.70;;;2.00;;
43670;SDS011;29267;50.906;7.248;2023-08-06T14:27:28;3.67;;;1.60;;
43670;SDS011;29267;50.906;7.248;2023-08-06T14:29:54;3.90;;;2.33;;
43670;SDS011;29267;50.906;7.248;2023-08-06T14:32:19;4.45;;;2.13;;
43670;SDS011;29267;50.906;7.248;2023-08-06T14:34:46;5.25;;;2.30;;
43670;SDS011;29267;50.906;7.248;2023-08-06T14:37:11;6.15;;;2.30;;
43670;SDS011;29267;50.906;7.248;2023-08-06T14:39:37;4.53;;;2.75;;
43670;SDS011;29267;50.906;7.248;2023-08-06T14:42:03;3.47;;;1.92;;
43670;SDS011;29267;50.906;7.248;2023-08-06T14:44:29;6.20;;;2.00;;
43670;SDS011;29267;50.906;7.248;2023-08-06T14:46:55;5.75;;;2.10;;
43670;SDS011;29267;50.906;7.248;2023-08-06T14:49:21;2.53;;;1.80;;
43670;SDS011;29267;50.906;7.248;2023-08-06T14:51:46;3.63;;;1.85;;
43670;SDS011;29267;50.906;7.248;2023-08-06T14:54:12;4.20;;;1.88;;
43670;SDS011;29267;50.906;7.248;2023-08-06T14:56:37;5.22;;;1.65;;
43670;SDS011;29267;50.906;7.248;2023-08-06T14:59:03;2.05;;;1.27;;
43670;SDS011;29267;50.906;7.248;2023-08-06T15:01:29;5.03;;;1.35;;
43670;SDS011;29267;50.906;7.248;2023-08-06T15:03:54;4.25;;;1.30;;